Time;durP1;ratioP1;P1;durP2;ratioP2;P2;SDS_P1;SDS_P2;PMS_P1;PMS_P2;Temp;Humidity;BMP_temperature;BMP_pressure;BME280_temperature;BME280_humidity;BME280_pressure;Samples;Min_cycle;Max_cycle;Signal;HPM_P1;HPM_P2
2023/06/29 00:02:25;;;;;;;;;11.00;11.00;;;;;22.83;55.66;100685.68;110234;1251;19646;-43
2023/06/29 00:04:54;;;;;;;;;10.00;10.00;;;;;22.79;55.77;100687.11;110216;1262;18650;-41
2023/06/29 00:07:24;;;;;;;;;11.00;11.00;;;;;22.75;55.93;100687.18;110193;1265;19939;-41
2023/06/29 00:09:53;;;;;;;;;12.00;12.00;;;;;22.76;55.77;100682.32;110217;1251;19871;-41
2023/06/29 00:12:21;;;;;;;;;13.00;11.50;;;;;22.75;55.90;100687.60;110212;1250;20381;-41
2023/06/29 00:14:48;;;;;;;;;9.00;9.00;;;;;22.74;55.86;100686.83;110203;1250;22098;-43
2023/06/29 00:17:16;;;;;;;;;11.00;11.00;;;;;22.72;56.01;100686.85;110282;1260;17870;-39
2023/06/29 00:19:47;;;;;;;;;11.00;11.00;;;;;22.72;56.00;100685.05;110280;1251;19972;-41
2023/06/29 00:22:14;;;;;;;;;11.00;11.00;;;;;22.67;56.34;100682.38;110251;1260;20263;-41
2023/06/29 00:24:43;;;;;;;;;11.00;11.00;;;;;22.67;56.06;100683.13;110177;1265;18125;-42
2023/06/29 00:27:10;;;;;;;;;12.50;12.00;;;;;22.66;56.17;100684.16;110233;1265;20042;-41
2023/06/29 00:29:38;;;;;;;;;12.50;12.00;;;;;22.68;56.20;100685.19;110234;1265;18600;-42
2023/06/29 00:32:05;;;;;;;;;11.50;11.50;;;;;22.68;56.12;100682.70;110264;1250;20722;-42
2023/06/29 00:34:33;;;;;;;;;13.50;12.00;;;;;22.69;56.20;100687.77;110224;1251;18742;-42
2023/06/29 00:37:00;;;;;;;;;16.00;15.00;;;;;22.68;56.25;100684.86;110252;1257;21548;-42
2023/06/29 00:39:28;;;;;;;;;13.00;13.00;;;;;22.69;56.24;100680.84;110219;1265;18079;-41
2023/06/29 00:41:55;;;;;;;;;17.00;16.00;;;;;22.67;56.31;100681.83;110215;1251;21819;-42
2023/06/29 00:44:22;;;;;;;;;15.00;14.00;;;;;22.64;56.30;100677.38;110228;1265;20853;-42
2023/06/29 00:46:50;;;;;;;;;12.00;12.00;;;;;22.64;56.52;100681.40;110213;1249;18152;-41
2023/06/29 00:49:17;;;;;;;;;16.00;14.00;;;;;22.64;56.46;100685.48;110086;1249;19976;-39
2023/06/29 00:51:45;;;;;;;;;13.00;12.67;;;;;22.61;56.45;100680.70;110258;1266;21320;-41
2023/06/29 00:54:12;;;;;;;;;16.00;13.00;;;;;22.58;56.63;100679.81;110271;1257;23095;-41
2023/06/29 00:56:39;;;;;;;;;17.00;17.00;;;;;22.58;56.57;100674.95;110068;1260;241736;-40
2023/06/29 00:59:07;;;;;;;;;13.50;13.50;;;;;22.50;56.95;100678.45;110214;1250;20004;-40
2023/06/29 01:01:34;;;;;;;;;14.00;14.00;;;;;22.53;56.81;100679.71;110232;1251;21828;-40
2023/06/29 01:04:01;;;;;;;;;15.00;15.00;;;;;22.57;56.86;100675.74;110268;1251;19956;-40
2023/06/29 01:06:30;;;;;;;;;16.00;14.50;;;;;22.52;56.93;100679.33;110261;1250;21573;-40
2023/06/29 01:08:58;;;;;;;;;19.00;18.00;;;;;22.53;56.99;100681.09;110219;1265;18458;-40
2023/06/29 01:11:25;;;;;;;;;18.00;16.00;;;;;22.54;57.11;100681.69;110225;1260;19925;-40
2023/06/29 01:13:52;;;;;;;;;21.00;18.00;;;;;22.50;57.38;100679.08;110256;1251;20006;-41
2023/06/29 01:16:20;;;;;;;;;16.00;16.00;;;;;22.48;57.17;100677.13;110237;1251;19584;-40
2023/06/29 01:18:47;;;;;;;;;17.50;16.50;;;;;22.51;57.30;100681.11;110216;1251;18760;-40
2023/06/29 01:21:15;;;;;;;;;18.50;17.00;;;;;22.49;57.21;100677.71;110258;1265;20018;-40
2023/06/29 01:23:42;;;;;;;;;16.33;16.33;;;;;22.48;57.34;100675.27;110242;1251;19895;-41
2023/06/29 01:26:10;;;;;;;;;18.00;16.00;;;;;22.47;57.50;100674.63;110214;1265;21909;-40
2023/06/29 01:28:38;;;;;;;;;18.50;18.00;;;;;22.48;57.48;100675.23;110167;1265;19291;-39
2023/06/29 01:31:06;;;;;;;;;20.33;16.00;;;;;22.48;57.43;100673.05;110212;1250;19621;-41
2023/06/29 01:33:34;;;;;;;;;23.00;22.00;;;;;22.46;57.55;100666.96;110202;1251;22054;-41
2023/06/29 01:36:02;;;;;;;;;18.00;18.00;;;;;22.47;57.59;100670.85;110251;1250;18609;-41
2023/06/29 01:38:30;;;;;;;;;16.00;16.00;;;;;22.47;57.73;100672.36;110228;1265;21839;-42
2023/06/29 01:40:57;;;;;;;;;19.00;18.50;;;;;22.48;57.63;100667.80;110222;1257;19861;-41
2023/06/29 01:43:25;;;;;;;;;18.00;16.00;;;;;22.47;57.77;100673.08;110229;1251;20035;-41
2023/06/29 01:45:52;;;;;;;;;21.00;18.67;;;;;22.46;57.81;100672.60;110208;1251;23159;-41
2023/06/29 01:48:19;;;;;;;;;18.50;18.00;;;;;22.46;57.70;100679.39;110194;1251;20112;-42
2023/06/29 01:50:47;;;;;;;;;16.00;15.00;;;;;22.47;57.50;100678.70;110145;1251;20045;-41
2023/06/29 01:53:14;;;;;;;;;21.00;19.00;;;;;22.45;57.73;100676.65;110228;1260;18140;-41
2023/06/29 01:55:42;;;;;;;;;17.50;15.50;;;;;22.43;57.67;100675.16;110237;1265;18806;-40
2023/06/29 01:58:09;;;;;;;;;19.00;18.00;;;;;22.40;57.73;100677.76;110227;1251;20070;-41
2023/06/29 02:00:37;;;;;;;;;25.00;22.00;;;;;22.38;57.92;100681.45;110193;1260;19867;-42
2023/06/29 02:03:04;;;;;;;;;22.50;21.00;;;;;22.37;57.82;100675.16;110236;1251;20314;-41
2023/06/29 02:05:32;;;;;;;;;22.00;20.00;;;;;22.37;58.02;100680.39;110260;1265;19967;-40
2023/06/29 02:07:59;;;;;;;;;27.00;23.00;;;;;22.36;58.00;100678.02;110217;1265;18456;-42
2023/06/29 02:10:26;;;;;;;;;22.33;21.00;;;;;22.36;57.97;100675.63;110264;1265;18728;-42
2023/06/29 02:12:54;;;;;;;;;22.00;19.00;;;;;22.37;58.02;100678.08;110298;1265;18618;-41
2023/06/29 02:15:21;;;;;;;;;18.00;16.00;;;;;22.37;58.08;100687.06;110239;1265;19141;-38
2023/06/29 02:17:48;;;;;;;;;20.00;18.50;;;;;22.35;58.14;100681.86;110263;1250;20005;-39
2023/06/29 02:20:17;;;;;;;;;19.00;18.00;;;;;22.37;57.93;100687.39;110231;1265;20997;-41
2023/06/29 02:22:44;;;;;;;;;22.50;19.00;;;;;22.36;57.93;100684.91;110270;1261;21442;-41
2023/06/29 02:25:12;;;;;;;;;23.00;22.00;;;;;22.35;57.95;100686.48;110284;1251;20328;-41
2023/06/29 02:27:39;;;;;;;;;22.00;21.00;;;;;22.28;58.12;100687.90;110199;1251;20102;-41
2023/06/29 02:30:06;;;;;;;;;18.33;17.33;;;;;22.21;58.49;100686.66;110181;1265;18312;-42
2023/06/29 02:32:34;;;;;;;;;24.00;20.00;;;;;22.24;58.57;100686.16;110237;1251;20399;-39
2023/06/29 02:35:01;;;;;;;;;22.00;19.00;;;;;22.28;58.36;100689.61;110266;1251;20066;-41
2023/06/29 02:37:28;;;;;;;;;24.00;21.00;;;;;22.25;58.30;100691.10;110220;1265;18454;-41
2023/06/29 02:39:56;;;;;;;;;25.50;23.00;;;;;22.22;58.33;100689.66;110263;1251;20171;-40
2023/06/29 02:42:23;;;;;;;;;21.33;19.00;;;;;22.22;58.51;100695.10;110238;1265;18595;-42
2023/06/29 02:44:50;;;;;;;;;24.00;19.00;;;;;22.13;58.84;100696.90;110250;1251;19492;-40
2023/06/29 02:47:18;;;;;;;;;21.50;20.00;;;;;22.16;58.85;100700.23;110254;1265;18778;-40
2023/06/29 02:49:45;;;;;;;;;22.50;19.50;;;;;22.19;58.55;100698.19;110263;1251;20036;-40
2023/06/29 02:52:12;;;;;;;;;21.00;19.00;;;;;22.19;58.76;100695.66;110256;1249;18109;-41
2023/06/29 02:54:40;;;;;;;;;21.00;19.00;;;;;22.21;58.63;100695.35;110193;1266;22039;-40
2023/06/29 02:57:07;;;;;;;;;19.50;17.00;;;;;22.12;58.88;100692.04;110222;1259;19420;-40
2023/06/29 02:59:34;;;;;;;;;25.00;24.00;;;;;22.04;59.09;100690.33;110255;1265;21877;-40
2023/06/29 03:02:02;;;;;;;;;22.00;19.00;;;;;22.04;59.24;100691.08;110236;1251;20209;-40
2023/06/29 03:04:29;;;;;;;;;24.00;19.00;;;;;22.10;58.98;100691.95;110247;1251;20110;-40
2023/06/29 03:06:56;;;;;;;;;27.00;24.00;;;;;22.13;58.83;100691.23;110279;1265;18358;-40
2023/06/29 03:09:24;;;;;;;;;29.00;24.00;;;;;22.08;59.03;100696.05;110251;1251;20081;-38
2023/06/29 03:11:51;;;;;;;;;18.00;18.00;;;;;22.07;59.06;100691.05;110222;1251;21565;-40
2023/06/29 03:14:18;;;;;;;;;26.50;24.50;;;;;22.05;59.10;100692.70;110290;1251;19628;-40
2023/06/29 03:16:46;;;;;;;;;24.00;21.00;;;;;22.01;59.26;100696.13;110274;1251;20176;-41
2023/06/29 03:19:13;;;;;;;;;27.00;23.00;;;;;22.07;59.08;100699.95;110272;1249;18991;-40
2023/06/29 03:21:41;;;;;;;;;24.00;21.00;;;;;22.10;59.14;100703.83;110295;1265;20953;-40
2023/06/29 03:24:08;;;;;;;;;24.00;22.00;;;;;22.03;59.19;100710.84;110208;1265;18558;-40
2023/06/29 03:26:35;;;;;;;;;22.50;21.00;;;;;21.98;59.18;100707.19;110191;1251;20044;-40
2023/06/29 03:29:03;;;;;;;;;19.00;19.00;;;;;21.96;59.55;100708.34;110215;1265;18346;-40
2023/06/29 03:31:30;;;;;;;;;18.50;18.00;;;;;22.01;59.49;100711.23;110272;1265;18567;-39
2023/06/29 03:33:57;;;;;;;;;24.00;22.00;;;;;22.05;59.37;100710.95;110211;1257;18581;-40
2023/06/29 03:36:25;;;;;;;;;21.00;19.50;;;;;22.05;59.16;100708.16;110231;1265;21857;-40
2023/06/29 03:38:52;;;;;;;;;21.50;18.50;;;;;22.06;59.30;100712.41;110291;1265;18559;-41
2023/06/29 03:41:19;;;;;;;;;21.50;20.50;;;;;21.96;59.47;100709.83;110230;1251;19882;-40
2023/06/29 03:43:47;;;;;;;;;25.00;24.50;;;;;21.93;59.60;100704.34;110238;1257;18464;-39
2023/06/29 03:46:14;;;;;;;;;24.00;21.00;;;;;22.04;59.47;100702.71;110241;1259;18554;-40
2023/06/29 03:48:41;;;;;;;;;18.00;17.00;;;;;22.06;59.29;100710.25;110155;1251;20900;-40
2023/06/29 03:51:09;;;;;;;;;19.00;15.00;;;;;22.06;59.17;100704.77;110136;1265;19137;-41
2023/06/29 03:53:36;;;;;;;;;22.00;21.00;;;;;22.10;59.14;100714.66;110278;1250;19848;-39
2023/06/29 03:56:03;;;;;;;;;24.67;21.67;;;;;22.12;59.06;100709.86;110222;1259;21117;-42
2023/06/29 03:58:31;;;;;;;;;21.00;19.00;;;;;22.11;59.14;100714.73;110212;1265;18137;-41
2023/06/29 04:00:58;;;;;;;;;24.00;22.00;;;;;22.09;59.25;100716.50;110219;1249;20358;-42
2023/06/29 04:03:26;;;;;;;;;22.00;19.00;;;;;22.10;59.43;100720.27;110210;1257;23034;-41
2023/06/29 04:05:53;;;;;;;;;18.00;17.00;;;;;22.12;59.15;100722.86;110238;1251;19930;-41
2023/06/29 04:08:20;;;;;;;;;21.33;20.33;;;;;22.06;59.30;100724.26;110238;1251;19894;-41
2023/06/29 04:10:48;;;;;;;;;24.00;22.00;;;;;21.90;59.96;100721.98;110223;1265;19990;-41
2023/06/29 04:13:15;;;;;;;;;21.50;21.00;;;;;21.88;60.05;100719.51;110253;1260;19505;-41
2023/06/29 04:15:43;;;;;;;;;17.00;15.00;;;;;21.85;60.05;100723.91;110210;1251;20145;-39
2023/06/29 04:18:10;;;;;;;;;22.50;20.50;;;;;21.82;60.30;100722.77;110203;1260;19535;-42
2023/06/29 04:20:38;;;;;;;;;18.00;18.00;;;;;21.95;60.12;100728.85;110223;1265;18350;-41
2023/06/29 04:23:05;;;;;;;;;19.00;18.00;;;;;21.80;60.47;100727.80;110234;1266;21883;-40
2023/06/29 04:25:33;;;;;;;;;20.33;20.00;;;;;21.76;60.91;100725.55;110199;1257;20019;-40
2023/06/29 04:28:01;;;;;;;;;21.00;19.00;;;;;21.78;60.78;100727.48;110198;1249;21464;-40
2023/06/29 04:30:28;;;;;;;;;21.67;18.00;;;;;21.95;60.21;100723.48;110146;1251;20001;-40
2023/06/29 04:32:59;;;;;;;;;24.00;22.00;;;;;21.93;60.22;100714.84;110158;1251;21211;-40
2023/06/29 04:35:27;;;;;;;;;23.50;19.00;;;;;21.74;60.88;100716.29;110164;1251;19568;-41
2023/06/29 04:37:54;;;;;;;;;31.00;24.00;;;;;21.79;61.04;100721.20;110212;1251;20106;-42
2023/06/29 04:40:21;;;;;;;;;23.00;21.00;;;;;22.07;60.73;100723.06;110238;1251;20246;-39
2023/06/29 04:42:49;;;;;;;;;21.50;21.00;;;;;22.36;60.00;100721.06;110182;1265;18089;-41
2023/06/29 04:45:18;;;;;;;;;22.00;18.00;;;;;22.54;59.65;100721.16;110198;1265;18538;-42
2023/06/29 04:47:46;;;;;;;;;19.00;18.00;;;;;22.60;59.35;100721.46;110221;1249;20137;-41
2023/06/29 04:50:13;;;;;;;;;21.00;18.50;;;;;22.54;59.42;100722.42;110236;1251;19495;-40
2023/06/29 04:52:41;;;;;;;;;21.67;21.67;;;;;22.38;59.69;100723.11;110199;1265;20263;-40
2023/06/29 04:55:08;;;;;;;;;24.50;20.00;;;;;22.33;59.62;100723.92;110266;1265;18999;-41
2023/06/29 04:57:35;;;;;;;;;24.00;21.50;;;;;22.33;59.76;100724.00;110216;1265;19539;-39
2023/06/29 05:00:07;;;;;;;;;21.00;21.00;;;;;22.24;60.11;100723.84;110208;1265;20308;-40
2023/06/29 05:02:34;;;;;;;;;21.00;21.00;;;;;22.16;60.32;100726.70;110161;1257;18573;-40
2023/06/29 05:05:02;;;;;;;;;24.00;21.50;;;;;22.28;60.11;100721.83;110113;1266;18145;-40
2023/06/29 05:07:29;;;;;;;;;23.33;22.33;;;;;22.34;59.78;100722.21;110241;1251;18540;-40
2023/06/29 05:09:58;;;;;;;;;21.00;18.00;;;;;22.34;59.80;100723.84;110244;1251;21353;-41
2023/06/29 05:12:25;;;;;;;;;21.50;19.00;;;;;22.30;59.89;100722.96;110208;1250;21953;-40
2023/06/29 05:14:53;;;;;;;;;21.50;20.00;;;;;22.19;60.17;100721.12;110200;1251;22016;-41
2023/06/29 05:17:20;;;;;;;;;23.00;21.00;;;;;22.26;59.93;100721.59;110233;1251;20359;-41
2023/06/29 05:19:48;;;;;;;;;22.00;21.00;;;;;22.23;59.81;100718.48;110270;1265;18960;-40
2023/06/29 05:22:15;;;;;;;;;21.00;16.00;;;;;22.15;60.16;100721.39;110223;1251;19881;-41
2023/06/29 05:24:42;;;;;;;;;18.00;16.00;;;;;22.20;60.19;100719.02;110234;1251;20175;-40
2023/06/29 05:27:10;;;;;;;;;18.50;18.00;;;;;22.13;60.07;100719.77;110289;1265;19430;-41
2023/06/29 05:29:38;;;;;;;;;22.00;18.00;;;;;22.16;60.15;100719.94;110295;1265;22638;-40
2023/06/29 05:32:05;;;;;;;;;16.50;16.50;;;;;22.18;59.99;100716.98;110214;1250;21942;-40
2023/06/29 05:34:32;;;;;;;;;19.00;18.00;;;;;22.13;60.11;100715.20;110255;1265;19412;-42
2023/06/29 05:37:00;;;;;;;;;21.00;19.00;;;;;22.19;60.06;100718.94;110233;1266;19440;-40
2023/06/29 05:39:28;;;;;;;;;18.00;18.00;;;;;22.26;59.95;100720.63;110238;1266;18734;-40
2023/06/29 05:41:55;;;;;;;;;21.50;21.50;;;;;22.26;60.06;100719.70;110250;1265;22005;-40
2023/06/29 05:44:22;;;;;;;;;27.00;24.33;;;;;22.30;60.16;100722.41;110254;1265;19286;-40
2023/06/29 05:46:50;;;;;;;;;19.00;18.00;;;;;22.34;60.16;100722.21;110259;1251;20036;-40
2023/06/29 05:49:17;;;;;;;;;21.50;21.00;;;;;22.32;60.41;100720.64;110269;1251;18578;-41
2023/06/29 05:51:44;;;;;;;;;23.00;22.00;;;;;22.37;60.31;100719.80;110134;1265;19722;-42
2023/06/29 05:54:12;;;;;;;;;20.33;20.33;;;;;22.44;60.10;100717.33;110132;1265;19029;-41
2023/06/29 05:56:39;;;;;;;;;26.00;23.00;;;;;22.45;60.32;100719.77;110132;1251;20642;-41
2023/06/29 05:59:07;;;;;;;;;26.00;24.00;;;;;22.47;60.40;100724.63;110106;1251;21022;-40
2023/06/29 06:01:35;;;;;;;;;26.00;22.00;;;;;22.45;60.25;100717.30;110109;1265;18772;-41
2023/06/29 06:04:03;;;;;;;;;23.50;21.00;;;;;22.37;60.43;100720.33;110234;1249;22976;-41
2023/06/29 06:06:31;;;;;;;;;23.00;23.00;;;;;22.38;60.51;100722.95;110255;1250;22128;-41
2023/06/29 06:08:58;;;;;;;;;22.50;21.50;;;;;22.46;60.19;100722.52;110228;1251;21471;-41
2023/06/29 06:11:25;;;;;;;;;21.50;20.00;;;;;22.50;60.05;100719.66;110203;1265;21934;-41
2023/06/29 06:13:53;;;;;;;;;18.00;16.00;;;;;22.52;59.99;100723.91;110175;1257;19501;-41
2023/06/29 06:16:20;;;;;;;;;18.67;15.67;;;;;22.51;59.90;100729.86;110156;1251;20172;-41
2023/06/29 06:18:47;;;;;;;;;18.00;16.00;;;;;22.54;59.62;100726.59;110211;1251;20248;-39
2023/06/29 06:21:15;;;;;;;;;16.00;15.00;;;;;22.55;59.59;100731.80;110214;1251;22235;-41
2023/06/29 06:23:43;;;;;;;;;16.00;14.00;;;;;22.57;59.54;100732.50;110156;1251;20021;-41
2023/06/29 06:26:10;;;;;;;;;15.00;15.00;;;;;22.56;59.63;100731.82;110163;1265;19063;-41
2023/06/29 06:28:37;;;;;;;;;15.00;15.00;;;;;22.57;59.61;100729.48;110103;1265;19562;-41
2023/06/29 06:31:05;;;;;;;;;15.00;15.00;;;;;22.61;59.47;100727.94;110183;1251;19965;-41
2023/06/29 06:33:32;;;;;;;;;14.00;14.00;;;;;22.67;59.50;100730.41;110177;1251;20133;-41
2023/06/29 06:36:00;;;;;;;;;15.00;15.00;;;;;22.64;59.56;100729.88;110214;1251;20673;-40
2023/06/29 06:38:27;;;;;;;;;18.00;15.00;;;;;22.73;59.54;100733.77;110203;1265;20183;-40
2023/06/29 06:40:55;;;;;;;;;15.50;14.00;;;;;22.77;59.44;100733.28;110195;1251;22309;-41
2023/06/29 06:43:22;;;;;;;;;15.00;12.00;;;;;22.79;59.40;100729.36;110185;1265;19722;-41
2023/06/29 06:45:50;;;;;;;;;14.00;14.00;;;;;22.86;59.27;100735.29;110187;1265;19956;-41
2023/06/29 06:48:17;;;;;;;;;17.00;15.00;;;;;22.86;59.14;100723.40;110227;1249;23860;-41
2023/06/29 06:50:44;;;;;;;;;14.33;13.00;;;;;22.91;59.30;100728.36;110191;1251;20756;-41
2023/06/29 06:53:12;;;;;;;;;15.00;13.00;;;;;22.94;59.43;100731.27;110215;1257;23260;-40
2023/06/29 06:55:39;;;;;;;;;15.50;14.50;;;;;22.99;59.33;100726.35;110219;1265;18973;-41
2023/06/29 06:58:07;;;;;;;;;13.00;13.00;;;;;23.05;59.28;100727.80;110251;1251;20746;-41
2023/06/29 07:00:35;;;;;;;;;18.00;16.00;;;;;23.09;59.29;100730.79;110272;1250;20125;-42
2023/06/29 07:03:03;;;;;;;;;19.00;16.00;;;;;23.11;59.23;100729.40;110217;1251;20057;-42
2023/06/29 07:05:31;;;;;;;;;16.00;15.00;;;;;23.21;59.21;100732.53;110215;1251;20768;-41
2023/06/29 07:07:59;;;;;;;;;16.00;15.00;;;;;23.18;59.09;100726.25;110209;1265;18755;-43
2023/06/29 07:10:26;;;;;;;;;16.00;16.00;;;;;23.19;58.93;100726.38;110248;1265;22888;-41
2023/06/29 07:12:53;;;;;;;;;12.00;12.00;;;;;23.24;59.15;100728.99;110186;1251;20837;-40
2023/06/29 07:15:21;;;;;;;;;17.00;16.00;;;;;23.25;58.91;100720.03;110195;1265;18620;-40
2023/06/29 07:17:48;;;;;;;;;16.00;13.00;;;;;23.22;58.84;100723.13;110184;1251;20057;-40
2023/06/29 07:20:16;;;;;;;;;15.00;15.00;;;;;23.22;58.90;100717.04;110182;1251;20749;-39
2023/06/29 07:22:43;;;;;;;;;15.00;13.00;;;;;23.30;59.04;100712.05;110233;1250;18730;-41
2023/06/29 07:25:11;;;;;;;;;19.00;16.00;;;;;23.40;58.79;100712.95;110201;1250;20823;-41
2023/06/29 07:27:38;;;;;;;;;15.00;15.00;;;;;23.44;58.72;100706.23;110221;1251;20796;-41
2023/06/29 07:30:06;;;;;;;;;15.00;13.00;;;;;23.45;58.46;100711.51;110222;1251;20085;-41
2023/06/29 07:32:33;;;;;;;;;16.00;15.00;;;;;23.47;58.48;100711.00;110220;1249;20247;-42
2023/06/29 07:35:00;;;;;;;;;13.00;13.00;;;;;23.56;58.34;100713.08;110240;1265;20668;-41
2023/06/29 07:37:28;;;;;;;;;13.00;13.00;;;;;23.59;57.95;100713.90;110240;1250;18860;-40
2023/06/29 07:39:55;;;;;;;;;14.00;12.50;;;;;23.59;57.91;100714.36;110216;1251;20429;-41
2023/06/29 07:42:23;;;;;;;;;12.00;12.00;;;;;23.64;57.73;100712.46;110244;1265;20952;-41
2023/06/29 07:44:50;;;;;;;;;15.00;14.00;;;;;23.62;57.49;100712.61;110250;1265;18871;-42
2023/06/29 07:47:17;;;;;;;;;12.00;12.00;;;;;23.58;57.56;100713.14;110210;1251;22411;-42
2023/06/29 07:49:45;;;;;;;;;13.00;13.00;;;;;23.58;57.58;100707.70;110207;1251;20600;-43
2023/06/29 07:52:12;;;;;;;;;17.00;14.50;;;;;23.62;57.64;100704.69;110181;1257;19862;-41
2023/06/29 07:54:40;;;;;;;;;15.00;15.00;;;;;23.66;57.33;100705.83;110216;1265;18763;-42
2023/06/29 07:57:07;;;;;;;;;15.00;15.00;;;;;23.65;57.25;100706.04;110258;1251;20990;-42
2023/06/29 07:59:34;;;;;;;;;13.00;12.00;;;;;23.67;56.95;100706.91;110211;1251;20363;-42
2023/06/29 08:02:02;;;;;;;;;12.00;12.00;;;;;23.72;56.95;100705.73;110182;1265;18891;-42
2023/06/29 08:04:29;;;;;;;;;17.00;16.00;;;;;23.73;56.92;100703.42;110214;1251;21011;-42
2023/06/29 08:06:56;;;;;;;;;12.50;12.00;;;;;23.72;56.84;100706.52;110266;1251;20025;-42
2023/06/29 08:09:24;;;;;;;;;13.50;13.00;;;;;23.74;56.89;100702.41;110208;1251;20368;-42
2023/06/29 08:11:51;;;;;;;;;13.00;13.00;;;;;23.79;56.83;100699.92;110201;1251;19698;-41
2023/06/29 08:14:19;;;;;;;;;15.00;13.00;;;;;23.82;56.87;100698.65;110209;1265;20118;-42
2023/06/29 08:16:46;;;;;;;;;14.00;13.00;;;;;23.81;56.85;100705.08;110192;1265;18598;-41
2023/06/29 08:19:14;;;;;;;;;14.00;13.00;;;;;23.82;56.84;100705.25;110214;1265;19337;-41
2023/06/29 08:21:42;;;;;;;;;14.00;14.00;;;;;23.79;56.68;100702.41;110220;1249;19974;-42
2023/06/29 08:24:09;;;;;;;;;15.00;14.00;;;;;23.84;56.87;100700.19;110229;1260;20174;-42
2023/06/29 08:26:36;;;;;;;;;13.00;12.00;;;;;23.87;56.80;100698.59;110179;1265;20727;-41
2023/06/29 08:29:04;;;;;;;;;16.00;13.00;;;;;23.89;56.59;100695.59;110202;1265;18656;-42
2023/06/29 08:31:31;;;;;;;;;14.50;13.00;;;;;23.91;56.66;100693.80;110079;1250;20084;-41
2023/06/29 08:33:59;;;;;;;;;14.00;13.33;;;;;23.93;56.79;100690.23;110187;1251;21092;-42
2023/06/29 08:36:29;;;;;;;;;13.00;13.00;;;;;23.95;56.67;100691.41;110202;1265;18736;-42
2023/06/29 08:38:56;;;;;;;;;12.00;12.00;;;;;24.01;56.55;100686.33;110187;1249;23015;-40
2023/06/29 08:41:24;;;;;;;;;14.50;13.50;;;;;24.05;56.45;100690.52;110214;1265;20668;-42
2023/06/29 08:43:51;;;;;;;;;12.50;12.00;;;;;24.04;56.23;100689.38;110210;1265;18598;-40
2023/06/29 08:46:18;;;;;;;;;14.33;13.00;;;;;24.07;56.25;100681.55;110171;1251;22905;-41
2023/06/29 08:48:46;;;;;;;;;16.00;13.00;;;;;24.05;55.97;100682.39;110169;1251;20982;-42
2023/06/29 08:51:13;;;;;;;;;14.00;12.50;;;;;24.09;56.19;100678.33;110188;1251;20361;-42
2023/06/29 08:53:40;;;;;;;;;16.50;15.00;;;;;24.13;56.08;100674.66;110193;1251;20559;-41
2023/06/29 08:56:08;;;;;;;;;16.00;14.00;;;;;24.18;55.96;100677.25;110200;1251;22194;-41
2023/06/29 08:58:35;;;;;;;;;16.00;13.00;;;;;24.13;55.91;100678.35;110237;1265;19997;-41
2023/06/29 09:01:02;;;;;;;;;16.50;16.00;;;;;24.11;56.11;100679.65;110167;1251;20336;-42
2023/06/29 09:03:30;;;;;;;;;13.00;13.00;;;;;24.11;56.03;100673.47;110177;1265;19356;-42
2023/06/29 09:05:57;;;;;;;;;14.00;13.00;;;;;24.17;56.00;100677.98;110239;1251;20043;-42
2023/06/29 09:08:26;;;;;;;;;12.00;12.00;;;;;24.21;55.65;100677.98;110192;1265;18704;-41
2023/06/29 09:10:54;;;;;;;;;14.00;14.00;;;;;24.20;55.36;100675.00;110196;1251;20982;-41
2023/06/29 09:13:22;;;;;;;;;12.00;12.00;;;;;24.13;55.25;100668.45;110206;1265;18611;-41
2023/06/29 09:15:50;;;;;;;;;14.00;13.00;;;;;24.14;55.38;100674.41;110192;1257;20009;-42
2023/06/29 09:18:18;;;;;;;;;12.00;12.00;;;;;24.22;55.35;100672.25;110220;1265;22685;-40
2023/06/29 09:20:45;;;;;;;;;14.67;13.00;;;;;24.29;55.37;100672.09;110272;1251;20102;-41
2023/06/29 09:23:13;;;;;;;;;13.00;13.00;;;;;24.32;55.06;100675.91;110182;1251;20091;-42
2023/06/29 09:25:41;;;;;;;;;10.00;10.00;;;;;24.32;55.05;100674.36;110236;1250;20767;-42
2023/06/29 09:28:08;;;;;;;;;13.50;13.00;;;;;24.31;54.70;100671.40;110256;1257;18630;-42
2023/06/29 09:30:37;;;;;;;;;13.00;12.00;;;;;24.24;54.30;100669.54;110173;1257;19899;-41
2023/06/29 09:33:04;;;;;;;;;15.33;13.00;;;;;24.33;53.98;100672.50;110261;1251;22733;-41
2023/06/29 09:35:31;;;;;;;;;13.00;13.00;;;;;24.36;53.84;100673.39;110192;1265;20353;-41
2023/06/29 09:37:59;;;;;;;;;13.50;11.50;;;;;24.27;53.99;100669.64;110234;1265;22651;-41
2023/06/29 09:40:26;;;;;;;;;12.67;12.33;;;;;24.31;53.55;100668.63;110227;1265;22194;-42
2023/06/29 09:42:54;;;;;;;;;13.00;12.00;;;;;24.33;52.95;100669.55;110236;1259;20458;-41
2023/06/29 09:45:21;;;;;;;;;12.00;12.00;;;;;24.31;53.05;100669.25;110242;1265;22718;-41
2023/06/29 09:47:48;;;;;;;;;14.00;13.00;;;;;24.39;52.53;100668.22;110197;1250;22754;-41
2023/06/29 09:50:16;;;;;;;;;12.50;11.00;;;;;24.44;52.17;100667.11;110205;1250;22122;-41
2023/06/29 09:52:43;;;;;;;;;10.00;10.00;;;;;24.44;52.07;100660.02;110223;1260;20362;-42
2023/06/29 09:55:10;;;;;;;;;11.00;11.00;;;;;24.45;51.50;100654.01;110250;1251;21089;-41
2023/06/29 09:57:38;;;;;;;;;9.67;9.67;;;;;24.51;51.14;100656.73;110224;1260;19933;-41
2023/06/29 10:00:09;;;;;;;;;13.00;10.00;;;;;24.43;51.30;100655.02;110220;1249;18700;-42
2023/06/29 10:02:36;;;;;;;;;9.00;9.00;;;;;24.45;51.05;100656.04;110180;1249;22260;-44
2023/06/29 10:05:04;;;;;;;;;10.00;10.00;;;;;24.42;50.61;100654.62;110241;1265;19922;-41
2023/06/29 10:07:31;;;;;;;;;10.00;9.50;;;;;24.47;50.58;100647.95;110237;1249;21221;-41
2023/06/29 10:09:59;;;;;;;;;10.00;10.00;;;;;24.46;50.57;100654.17;110243;1251;20745;-41
2023/06/29 10:12:27;;;;;;;;;10.00;9.00;;;;;24.43;50.86;100653.10;110260;1257;18787;-42
2023/06/29 10:14:54;;;;;;;;;11.00;10.00;;;;;24.38;50.95;100653.30;110242;1251;20044;-40
2023/06/29 10:17:21;;;;;;;;;10.00;10.00;;;;;24.45;50.48;100649.84;110181;1249;20575;-39
2023/06/29 10:19:49;;;;;;;;;9.50;9.50;;;;;24.57;49.93;100643.77;110279;1265;20035;-42
2023/06/29 10:22:16;;;;;;;;;12.67;10.67;;;;;24.65;49.58;100647.17;110197;1250;20223;-41
2023/06/29 10:24:43;;;;;;;;;12.00;12.00;;;;;24.62;49.59;100643.92;110145;1265;19680;-43
2023/06/29 10:27:11;;;;;;;;;9.00;8.00;;;;;24.59;49.53;100641.63;110259;1257;18673;-41
2023/06/29 10:29:38;;;;;;;;;11.33;10.00;;;;;24.58;49.61;100643.06;110243;1250;20021;-41
2023/06/29 10:32:05;;;;;;;;;11.00;10.00;;;;;24.54;49.66;100637.56;110215;1265;22162;-42
2023/06/29 10:34:33;;;;;;;;;12.00;10.00;;;;;24.49;49.93;100638.09;110218;1251;20084;-42
2023/06/29 10:37:00;;;;;;;;;9.00;9.00;;;;;24.55;50.02;100633.57;110204;1249;20194;-43
2023/06/29 10:39:28;;;;;;;;;10.67;10.00;;;;;24.49;50.28;100635.14;110260;1265;20978;-42
2023/06/29 10:41:55;;;;;;;;;10.00;10.00;;;;;24.45;50.43;100632.64;110200;1251;19666;-41
2023/06/29 10:44:22;;;;;;;;;13.00;10.00;;;;;24.43;50.52;100633.72;110250;1257;19661;-40
2023/06/29 10:46:51;;;;;;;;;11.00;10.00;;;;;24.62;50.46;100631.90;110280;1251;20777;-41
2023/06/29 10:49:18;;;;;;;;;12.00;10.00;;;;;24.62;50.34;100632.75;110276;1250;20393;-40
2023/06/29 10:51:46;;;;;;;;;13.00;12.00;;;;;24.61;50.42;100637.54;110261;1265;19189;-40
2023/06/29 10:54:13;;;;;;;;;13.00;12.00;;;;;24.58;50.49;100632.44;110228;1260;20750;-40
2023/06/29 10:56:40;;;;;;;;;10.00;10.00;;;;;24.55;50.38;100627.15;110241;1265;19984;-40
2023/06/29 10:59:08;;;;;;;;;10.00;10.00;;;;;24.55;50.44;100624.63;110267;1266;18925;-40
2023/06/29 11:01:35;;;;;;;;;11.00;10.00;;;;;24.52;50.64;100625.95;110201;1251;20841;-40
2023/06/29 11:04:02;;;;;;;;;12.50;11.00;;;;;24.56;50.64;100625.98;110207;1260;19953;-40